Terminal Aerodrome Forecast
Issued by NWS

Home | Current Version | Previous Version | Graphics & Text | Print | Product List | Glossary On
Versions: 1 2 3 4 5 6 7 8 9 10 11 12 13
000
FTUS43 KBIS 281126
TAFMOT
TAF
KMOT 281126Z 2812/2912 32005KT P6SM SKC
     FM281800 36009KT P6SM SKC
     FM290100 03005KT P6SM SKC
     FM290300 13004KT P6SM FEW250
     FM290600 19004KT P6SM FEW250=

USA.gov is the U.S. government's official web portal to all federal, state and local government web resources and services.